createdAt,value
2023-04-30T00:00:30.961Z,4.1
2023-04-30T00:05:41.987Z,4.08
2023-04-30T00:10:51.744Z,4.08
2023-04-30T00:16:01.821Z,4.06
2023-04-30T00:21:13.845Z,4.06
2023-04-30T00:26:22.363Z,4.1
2023-04-30T00:31:31.589Z,4.1
2023-04-30T00:36:39.906Z,4.13
2023-04-30T00:41:48.382Z,4.13
2023-04-30T00:46:58.140Z,4.14
2023-04-30T00:52:07.909Z,4.14
2023-04-30T00:57:17.029Z,4.09
2023-04-30T01:02:25.914Z,4.09
2023-04-30T01:07:33.971Z,4.1
2023-04-30T01:12:42.523Z,4.1
2023-04-30T01:17:52.688Z,4.16
2023-04-30T01:22:58.770Z,4.16
2023-04-30T01:28:08.534Z,4.15
2023-04-30T01:33:18.300Z,4.15
2023-04-30T01:38:26.823Z,4.17
2023-04-30T01:43:36.658Z,4.17
2023-04-30T01:48:45.675Z,4.17
2023-04-30T01:53:55.425Z,4.17
2023-04-30T01:59:05.850Z,4.17
2023-04-30T02:04:15.586Z,4.17
2023-04-30T02:09:24.689Z,4.16
2023-04-30T02:14:34.484Z,4.16
2023-04-30T02:19:44.247Z,4.25
2023-04-30T02:24:53.316Z,4.25
2023-04-30T02:30:01.862Z,4.21
2023-04-30T02:35:11.567Z,4.18
2023-04-30T02:40:20.706Z,4.18
2023-04-30T03:16:27.395Z,4.21
2023-04-30T04:02:46.906Z,4.26
2023-04-30T04:07:56.420Z,4.25
2023-04-30T04:13:05.539Z,4.25
2023-04-30T04:18:15.916Z,4.27
2023-04-30T04:23:24.350Z,4.27
2023-04-30T04:28:32.960Z,4.18
2023-04-30T04:33:42.623Z,4.18
2023-04-30T04:38:51.748Z,4.19
2023-04-30T04:43:59.596Z,4.19
2023-04-30T04:49:08.767Z,4.18
2023-04-30T04:54:18.471Z,4.18
2023-04-30T04:59:27.578Z,4.23
2023-04-30T05:04:36.074Z,4.23
2023-04-30T05:09:45.865Z,4.24
2023-04-30T05:14:54.931Z,4.24
2023-04-30T05:20:04.718Z,4.26
2023-04-30T05:25:13.818Z,4.26
2023-04-30T05:30:23.602Z,4.24
2023-04-30T05:35:31.410Z,4.24
2023-04-30T05:40:42.492Z,4.21
2023-04-30T05:45:51.765Z,4.27
2023-04-30T05:51:01.364Z,4.27
2023-04-30T05:56:10.445Z,4.28
2023-04-30T06:01:23.376Z,4.28
2023-04-30T06:06:32.828Z,4.28
2023-04-30T06:11:42.855Z,4.28
2023-04-30T06:16:51.088Z,4.31
2023-04-30T06:22:00.562Z,4.31
2023-04-30T06:27:09.685Z,4.32
2023-04-30T06:32:18.768Z,4.32
2023-04-30T06:37:28.507Z,4.32
2023-04-30T06:42:37.035Z,4.32
2023-04-30T06:47:46.600Z,4.35
2023-04-30T06:52:54.618Z,4.35
2023-04-30T07:39:19.364Z,4.35
2023-04-30T07:44:27.065Z,4.35
2023-04-30T07:49:35.550Z,4.4
2023-04-30T07:54:46.006Z,4.4
2023-04-30T07:59:58.558Z,4.39
2023-04-30T08:05:06.147Z,4.39
2023-04-30T08:10:15.244Z,4.39
2023-04-30T08:15:25.019Z,4.39
2023-04-30T08:20:33.535Z,4.32
2023-04-30T08:25:42.593Z,4.32
2023-04-30T08:30:51.102Z,4.3
2023-04-30T08:36:02.116Z,4.3
2023-04-30T08:41:10.643Z,4.32
2023-04-30T08:46:19.281Z,4.39
2023-04-30T08:51:28.216Z,4.39
2023-04-30T08:56:38.646Z,4.27
2023-04-30T09:01:47.996Z,4.27
2023-04-30T09:06:57.494Z,4.23
2023-04-30T09:12:05.994Z,4.23
2023-04-30T09:17:14.441Z,4.18
2023-04-30T09:22:24.884Z,4.18
2023-04-30T09:27:33.338Z,4.25
2023-04-30T09:32:42.634Z,4.25
2023-04-30T09:37:50.949Z,4.22
2023-04-30T09:42:59.450Z,4.22
2023-04-30T09:48:18.420Z,4.12
2023-04-30T09:53:17.693Z,4.12
2023-04-30T09:58:26.790Z,4.07
2023-04-30T10:03:34.845Z,4.07
2023-04-30T10:08:43.082Z,4.09
2023-04-30T10:13:51.605Z,4.09
2023-04-30T10:19:00.106Z,4.06
2023-04-30T10:24:08.519Z,4.06
2023-04-30T10:29:18.314Z,4.1
2023-04-30T11:15:49.163Z,4.24
2023-04-30T11:20:58.543Z,4.23
2023-04-30T11:26:07.616Z,4.23
2023-04-30T11:31:16.865Z,4.11
2023-04-30T11:36:25.140Z,4.11
2023-04-30T11:41:35.600Z,4.18
2023-04-30T11:46:44.289Z,4.18
2023-04-30T11:51:53.837Z,4.18
2023-04-30T11:57:02.933Z,4.18
2023-04-30T12:02:14.065Z,4.18
2023-04-30T12:07:22.916Z,4.11
2023-04-30T12:12:32.248Z,4.11
2023-04-30T12:17:43.552Z,4.08
2023-04-30T12:29:36.958Z,4.14
2023-04-30T12:34:45.992Z,4.14
2023-04-30T12:39:54.758Z,4.11
2023-04-30T12:45:02.977Z,4.11
2023-04-30T12:50:12.696Z,4.18
2023-04-30T12:55:22.611Z,4.18
2023-04-30T13:00:32.186Z,4.14
2023-04-30T13:05:40.744Z,4.14
2023-04-30T13:10:49.176Z,4.15
2023-04-30T13:15:57.983Z,4.15
2023-04-30T13:21:06.145Z,4.19
2023-04-30T13:26:15.877Z,4.19
2023-04-30T13:31:25.891Z,4.12
2023-04-30T13:36:35.395Z,4.12
2023-04-30T13:41:43.896Z,4.08
2023-04-30T13:46:53.870Z,4.08
2023-04-30T13:52:02.152Z,4.09
2023-04-30T13:57:10.643Z,4.09
2023-04-30T14:02:20.563Z,4.04
2023-04-30T14:07:28.841Z,4.06
2023-04-30T14:12:37.961Z,4.06
2023-04-30T14:17:47.263Z,4.06
2023-04-30T14:22:55.566Z,4.06
2023-04-30T14:28:05.978Z,4.1
2023-04-30T14:33:16.751Z,4.1
2023-04-30T14:38:26.160Z,4.03
2023-04-30T14:43:35.328Z,4.03
2023-04-30T14:48:43.751Z,4.05
2023-04-30T14:53:52.222Z,4.05
2023-04-30T14:59:01.331Z,4.07
2023-04-30T15:04:09.823Z,4.07
2023-04-30T15:09:19.599Z,4.05
2023-04-30T15:14:28.704Z,4.05
2023-04-30T15:55:39.823Z,4.01
2023-04-30T16:00:48.984Z,4.05
2023-04-30T16:05:58.917Z,4.05
2023-04-30T16:11:09.033Z,4.03
2023-04-30T16:16:18.575Z,4.03
2023-04-30T16:21:27.272Z,4.05
2023-04-30T16:26:37.733Z,4.05
2023-04-30T16:31:46.925Z,4.03
2023-04-30T16:36:56.573Z,4.03
2023-04-30T16:42:05.009Z,4.02
2023-04-30T16:47:13.513Z,4.02
2023-04-30T16:52:23.253Z,4.03
2023-04-30T16:57:32.380Z,4.03
2023-04-30T17:02:41.465Z,4.02
2023-04-30T17:07:49.978Z,4.02
2023-04-30T17:12:57.819Z,4.03
2023-04-30T17:18:07.865Z,4.03
2023-04-30T17:23:16.680Z,4.04
2023-04-30T17:28:25.807Z,4.01
2023-04-30T17:33:34.483Z,4.01
2023-04-30T17:38:44.055Z,4.05
2023-04-30T17:43:53.842Z,4.05
2023-04-30T17:49:02.304Z,4.03
2023-04-30T17:54:12.073Z,4.03
2023-04-30T17:59:22.440Z,3.99
2023-04-30T18:04:32.188Z,3.99
2023-04-30T18:09:41.999Z,4.02
2023-04-30T18:14:51.739Z,4.02
2023-04-30T18:20:00.873Z,4
2023-04-30T18:25:10.005Z,4
2023-04-30T18:30:18.450Z,4.03
2023-04-30T18:35:28.264Z,4.03
2023-04-30T18:40:37.982Z,4.02
2023-04-30T18:45:47.948Z,4.02
2023-04-30T18:50:57.489Z,4.01
2023-04-30T19:42:33.263Z,4.04
2023-04-30T19:47:43.886Z,4.04
2023-04-30T19:52:53.348Z,4.05
2023-04-30T19:58:02.502Z,4.05
2023-04-30T20:03:12.821Z,4.12
2023-04-30T20:08:40.546Z,4.12
2023-04-30T20:13:50.316Z,4.11
2023-04-30T20:18:59.402Z,4.09
2023-04-30T20:24:09.188Z,4.09
2023-04-30T20:29:18.296Z,4.05
2023-04-30T20:34:29.980Z,4.05
2023-04-30T20:39:38.455Z,4.08
2023-04-30T20:44:47.584Z,4.08
2023-04-30T20:49:58.532Z,4.08
2023-04-30T20:55:05.834Z,4.08
2023-04-30T21:00:15.613Z,4.08
2023-04-30T21:05:25.966Z,4.08
2023-04-30T21:10:34.483Z,4.05
2023-04-30T21:15:43.607Z,4.05
2023-04-30T21:20:52.769Z,4.04
2023-04-30T21:26:01.842Z,4.04
2023-04-30T21:31:11.211Z,4.02
2023-04-30T21:36:21.372Z,4.02
2023-04-30T21:41:30.525Z,4.09
2023-04-30T21:46:41.165Z,4.09
2023-04-30T21:51:49.393Z,4.03
2023-04-30T21:56:58.480Z,4.03
2023-04-30T22:02:24.923Z,4
2023-04-30T22:07:16.716Z,4
2023-04-30T22:12:25.357Z,4.03
2023-04-30T22:17:34.589Z,4.03
2023-04-30T22:22:44.731Z,4
2023-04-30T22:27:54.469Z,4
2023-04-30T22:33:05.124Z,4.01
2023-04-30T22:38:14.621Z,4.01
2023-04-30T22:43:24.353Z,4.05
2023-04-30T22:48:33.507Z,4.05
2023-04-30T22:53:43.251Z,4.02
2023-04-30T23:34:55.686Z,4.02
2023-04-30T23:40:04.825Z,4.01
2023-04-30T23:45:14.469Z,4.01
2023-04-30T23:50:24.240Z,3.99
2023-04-30T23:55:33.321Z,3.99
